Time;durP1;ratioP1;P1;durP2;ratioP2;P2;SDS_P1;SDS_P2;PMS_P1;PMS_P2;Temp;Humidity;BMP_temperature;BMP_pressure;BME280_temperature;BME280_humidity;BME280_pressure;Samples;Min_cycle;Max_cycle;Signal;HPM_P1;HPM_P2
2022/12/07 00:01:34;;;;;;;2.20;2.00;;;;;;;4.64;89.79;95352.81;4376976;32;20280;-54
2022/12/07 00:04:08;;;;;;;1.87;1.77;;;;;;;4.71;89.65;95348.94;4370713;32;20279;-54
2022/12/07 00:06:36;;;;;;;1.77;1.77;;;;;;;4.60;90.09;95351.75;4374983;32;20285;-55
2022/12/07 00:09:05;;;;;;;2.17;2.07;;;;;;;4.75;89.48;95349.22;4350517;32;20294;-54
2022/12/07 00:11:31;;;;;;;1.57;1.47;;;;;;;4.58;90.05;95351.19;4333395;32;20300;-56
2022/12/07 00:14:01;;;;;;;1.87;1.77;;;;;;;4.79;89.32;95345.78;4350796;32;20331;-52
2022/12/07 00:16:30;;;;;;;2.33;2.00;;;;;;;4.72;89.64;95342.63;4352466;32;20198;-56
2022/12/07 00:18:56;;;;;;;3.40;2.23;;;;;;;4.68;89.56;95338.94;4334724;32;20282;-53
2022/12/07 00:21:26;;;;;;;1.57;1.57;;;;;;;4.70;89.37;95334.22;4367148;32;20328;-56
2022/12/07 00:23:54;;;;;;;2.07;1.97;;;;;;;4.62;89.23;95336.50;4352817;32;20440;-55
2022/12/07 00:26:27;;;;;;;2.57;2.37;;;;;;;4.56;89.45;95343.59;4364314;32;20344;-54
2022/12/07 00:28:57;;;;;;;1.93;1.83;;;;;;;4.66;88.49;95332.34;4367764;32;20314;-54
2022/12/07 00:31:28;;;;;;;1.77;1.73;;;;;;;4.63;88.92;95332.84;4350347;32;20276;-53
2022/12/07 00:33:55;;;;;;;1.43;1.43;;;;;;;4.54;89.60;95335.19;4357440;32;20311;-53
2022/12/07 00:36:24;;;;;;;1.67;0.93;;;;;;;4.72;88.99;95328.69;4362068;32;20367;-52
2022/12/07 00:38:50;;;;;;;2.07;1.93;;;;;;;4.80;88.39;95328.19;4369339;32;20411;-55
2022/12/07 00:41:21;;;;;;;1.77;1.67;;;;;;;4.86;87.87;95331.63;4345245;32;20295;-55
2022/12/07 00:43:49;;;;;;;1.93;1.90;;;;;;;4.92;87.35;95330.63;4364578;32;20339;-51
2022/12/07 00:46:21;;;;;;;1.13;1.13;;;;;;;4.87;87.63;95328.75;4378137;32;20303;-52
2022/12/07 00:48:49;;;;;;;1.57;1.50;;;;;;;4.92;87.42;95331.41;4365599;32;20398;-55
2022/12/07 00:51:21;;;;;;;1.17;1.17;;;;;;;4.78;87.26;95331.06;4366728;32;20303;-56
2022/12/07 00:53:51;;;;;;;1.23;1.23;;;;;;;4.76;88.02;95327.94;4364452;32;20304;-55
2022/12/07 00:56:28;;;;;;;2.23;2.13;;;;;;;4.72;88.19;95336.59;4362140;32;20280;-56
2022/12/07 00:59:01;;;;;;;2.40;2.27;;;;;;;4.55;88.84;95334.13;4350485;32;20362;-56
2022/12/07 01:01:30;;;;;;;1.93;1.40;;;;;;;4.58;88.98;95336.22;4347005;32;20289;-55
2022/12/07 01:03:56;;;;;;;3.03;1.43;;;;;;;4.64;88.80;95323.91;4321731;32;20288;-56
2022/12/07 01:06:28;;;;;;;1.77;1.73;;;;;;;4.66;88.65;95330.50;4344192;32;20423;-54
2022/12/07 01:08:54;;;;;;;1.13;1.13;;;;;;;4.73;88.23;95335.53;4348091;32;20215;-56
2022/12/07 01:11:26;;;;;;;2.03;1.93;;;;;;;4.71;87.04;95325.28;4359457;32;20300;-55
2022/12/07 01:13:54;;;;;;;1.77;1.67;;;;;;;4.66;87.51;95327.09;4341794;32;20344;-56
2022/12/07 01:16:21;;;;;;;1.67;1.67;;;;;;;4.64;87.85;95326.53;4362612;32;20311;-56
2022/12/07 01:18:48;;;;;;;1.10;1.10;;;;;;;4.58;87.78;95325.72;4367379;32;20342;-52
2022/12/07 01:21:21;;;;;;;2.17;2.07;;;;;;;4.57;87.68;95326.78;4358114;32;20331;-55
2022/12/07 01:23:53;;;;;;;1.60;1.50;;;;;;;4.55;88.25;95326.25;4390292;32;20324;-51
2022/12/07 01:26:23;;;;;;;2.63;2.50;;;;;;;4.64;87.61;95324.72;4370024;32;20371;-51
2022/12/07 01:28:50;;;;;;;2.00;2.00;;;;;;;4.64;87.96;95323.91;4372640;32;20414;-54
2022/12/07 01:31:21;;;;;;;0.60;0.60;;;;;;;4.63;87.64;95330.22;4371448;32;20322;-55
2022/12/07 01:33:50;;;;;;;1.40;1.40;;;;;;;4.47;87.84;95324.09;4361570;32;20284;-53
2022/12/07 01:36:20;;;;;;;1.20;1.20;;;;;;;4.50;87.89;95339.34;4353944;32;20293;-54
2022/12/07 01:38:51;;;;;;;1.77;1.67;;;;;;;4.48;88.03;95331.72;4370862;32;20329;-56
2022/12/07 01:41:17;;;;;;;1.37;1.37;;;;;;;4.55;88.11;95328.87;4366705;32;20276;-55
2022/12/07 01:44:16;;;;;;;1.60;1.50;;;;;;;4.60;87.50;95328.87;4361581;32;20273;-52
2022/12/07 01:46:45;;;;;;;1.13;1.13;;;;;;;4.56;87.88;95333.09;4371498;32;20375;-55
2022/12/07 01:49:21;;;;;;;0.83;0.83;;;;;;;4.44;88.07;95335.13;4374217;32;20301;-54
2022/12/07 01:51:50;;;;;;;1.80;1.70;;;;;;;4.52;88.25;95323.34;4375407;32;20340;-56
2022/12/07 01:54:17;;;;;;;2.67;2.57;;;;;;;4.39;88.67;95327.19;4353128;32;20300;-54
2022/12/07 01:56:50;;;;;;;1.30;1.23;;;;;;;4.44;88.67;95317.53;4369706;32;20281;-53
2022/12/07 01:59:20;;;;;;;2.30;2.13;;;;;;;4.51;88.38;95314.69;4380363;32;20273;-55
2022/12/07 02:01:46;;;;;;;1.37;1.37;;;;;;;4.50;87.90;95318.34;4397856;32;20299;-53
2022/12/07 02:04:12;;;;;;;0.93;0.93;;;;;;;4.53;87.76;95317.84;4382694;32;20284;-52
2022/12/07 02:06:44;;;;;;;1.50;1.40;;;;;;;4.39;87.92;95319.31;4371621;32;20303;-55
2022/12/07 02:09:12;;;;;;;1.37;1.37;;;;;;;4.40;88.21;95323.53;4362974;32;20196;-53
2022/12/07 02:11:42;;;;;;;1.53;1.43;;;;;;;4.41;88.29;95325.91;4378380;32;20362;-52
2022/12/07 02:14:08;;;;;;;1.70;1.70;;;;;;;4.26;88.95;95323.19;4337468;32;20339;-52
2022/12/07 02:17:20;;;;;;;1.27;1.27;;;;;;;4.43;88.37;95323.81;4374534;32;20319;-55
2022/12/07 02:20:26;;;;;;;1.47;1.47;;;;;;;4.51;88.17;95316.50;4365440;32;20277;-56
2022/12/07 02:23:24;;;;;;;1.90;1.73;;;;;;;4.65;87.80;95315.00;4383785;32;20364;-55
2022/12/07 02:26:23;;;;;;;1.70;1.60;;;;;;;4.44;88.73;95314.91;4366422;32;20364;-51
2022/12/07 02:29:20;;;;;;;1.87;1.77;;;;;;;4.44;88.43;95306.22;4366268;32;20396;-56
2022/12/07 02:32:25;;;;;;;1.53;1.43;;;;;;;4.40;88.95;95303.31;4349503;32;20296;-52
2022/12/07 02:35:04;;;;;;;1.67;1.57;;;;;;;4.43;88.71;95302.81;4282439;32;20365;-55
2022/12/07 02:37:54;;;;;;;2.03;1.93;;;;;;;4.65;88.35;95305.28;4296981;33;20295;-52
2022/12/07 02:40:43;;;;;;;1.67;1.63;;;;;;;4.54;88.58;95310.75;4296787;33;20290;-55
2022/12/07 02:43:20;;;;;;;2.27;2.10;;;;;;;4.22;89.63;95311.59;4289271;33;20280;-54
2022/12/07 02:45:52;;;;;;;1.63;1.53;;;;;;;4.51;88.98;95309.41;4303097;33;20285;-53
2022/12/07 02:48:23;;;;;;;2.07;1.97;;;;;;;4.29;89.49;95306.16;4298880;33;20350;-55
2022/12/07 02:50:54;;;;;;;1.30;1.30;;;;;;;4.40;89.40;95302.53;4290569;33;20318;-54
2022/12/07 02:53:55;;;;;;;3.00;1.97;;;;;;;4.35;89.48;95299.88;4292425;33;20323;-53
2022/12/07 02:56:45;;;;;;;1.67;1.57;;;;;;;4.31;90.22;95299.59;4272945;33;21180;-54
2022/12/07 02:59:28;;;;;;;1.80;1.70;;;;;;;4.26;90.15;95301.41;4309726;32;20319;-53
2022/12/07 03:02:16;;;;;;;2.10;1.87;;;;;;;4.46;89.21;95302.31;4377913;32;20288;-54
2022/12/07 03:05:14;;;;;;;1.97;1.73;;;;;;;4.50;89.03;95299.97;4383005;32;20276;-54
2022/12/07 03:08:08;;;;;;;1.80;1.53;;;;;;;4.37;89.24;95300.41;4339062;32;20285;-56
2022/12/07 03:10:50;;;;;;;2.07;1.97;;;;;;;4.41;89.71;95304.91;4371004;32;20285;-54
2022/12/07 03:13:59;;;;;;;1.67;1.67;;;;;;;4.29;89.84;95306.16;4369112;32;20326;-54
2022/12/07 03:16:57;;;;;;;2.27;1.57;;;;;;;4.48;89.56;95305.47;4339471;32;20289;-55
2022/12/07 03:19:26;;;;;;;1.53;1.43;;;;;;;4.58;88.42;95304.72;4344185;32;20379;-53
2022/12/07 03:21:58;;;;;;;1.10;1.10;;;;;;;4.38;89.04;95299.34;4340025;32;20407;-54
2022/12/07 03:24:41;;;;;;;1.50;1.50;;;;;;;4.42;89.21;95300.44;4380265;32;20280;-53
2022/12/07 03:27:27;;;;;;;1.03;1.03;;;;;;;4.54;88.63;95295.78;4367196;32;20333;-54
2022/12/07 03:30:20;;;;;;;1.13;1.13;;;;;;;4.45;89.16;95294.69;4361159;32;20338;-55
2022/12/07 03:32:54;;;;;;;1.80;1.70;;;;;;;4.35;89.53;95299.88;4373401;32;20388;-55
2022/12/07 03:35:54;;;;;;;0.87;0.87;;;;;;;4.39;90.02;95300.94;4386315;32;20371;-53
2022/12/07 03:38:29;;;;;;;1.90;1.27;;;;;;;4.48;89.21;95299.41;4342832;32;20271;-54
2022/12/07 03:41:26;;;;;;;4.90;2.20;;;;;;;4.52;89.33;95297.87;4370452;32;20272;-54
2022/12/07 03:43:57;;;;;;;1.90;1.90;;;;;;;4.50;89.46;95292.09;4339423;32;20408;-56
2022/12/07 03:47:00;;;;;;;1.43;1.43;;;;;;;4.58;89.02;95288.94;4347468;32;20300;-53
2022/12/07 03:49:40;;;;;;;0.97;0.97;;;;;;;4.62;89.08;95291.84;4364521;32;20306;-54
2022/12/07 03:52:39;;;;;;;1.40;1.40;;;;;;;4.45;89.74;95294.69;4360015;32;20284;-58
2022/12/07 03:55:51;;;;;;;1.90;1.80;;;;;;;4.42;90.24;95295.97;4361077;32;20304;-58
2022/12/07 03:58:24;;;;;;;4.70;2.90;;;;;;;4.48;90.09;95284.44;4372457;32;20295;-58
2022/12/07 04:00:50;;;;;;;1.63;1.63;;;;;;;4.47;90.06;95282.87;4363316;32;20389;-58
2022/12/07 04:03:17;;;;;;;1.93;1.83;;;;;;;4.33;90.11;95286.22;4372465;32;20287;-58
2022/12/07 04:05:44;;;;;;;2.07;1.97;;;;;;;4.36;90.41;95281.25;4355140;32;20280;-58
2022/12/07 04:08:14;;;;;;;2.57;2.37;;;;;;;4.48;89.72;95276.56;4373220;32;20326;-58
2022/12/07 04:10:39;;;;;;;2.20;1.70;;;;;;;4.63;88.70;95273.22;4366546;32;20285;-58
2022/12/07 04:13:05;;;;;;;2.03;1.93;;;;;;;4.55;88.44;95273.72;4353214;32;20331;-58
2022/12/07 04:15:31;;;;;;;1.13;1.13;;;;;;;4.69;87.84;95282.72;4377013;32;20185;-58
2022/12/07 04:17:57;;;;;;;2.30;2.20;;;;;;;4.58;88.48;95278.44;4372448;32;20264;-58
2022/12/07 04:20:24;;;;;;;1.73;1.63;;;;;;;4.53;88.82;95277.66;4380366;32;20348;-58
2022/12/07 04:22:54;;;;;;;2.10;2.07;;;;;;;4.65;88.63;95278.22;4351728;32;20294;-58
2022/12/07 04:25:21;;;;;;;2.37;2.27;;;;;;;4.57;88.83;95281.34;4360987;32;20322;-58
2022/12/07 04:27:47;;;;;;;1.63;1.63;;;;;;;4.48;89.70;95289.72;4370565;32;20344;-58
2022/12/07 04:30:14;;;;;;;2.37;2.17;;;;;;;4.51;89.93;95277.91;4353703;32;20322;-58
2022/12/07 04:32:41;;;;;;;1.63;1.63;;;;;;;4.61;89.44;95283.19;4319861;32;20282;-58
2022/12/07 04:35:11;;;;;;;1.50;1.50;;;;;;;4.50;89.35;95281.56;4376817;32;20341;-58
2022/12/07 04:37:39;;;;;;;2.43;2.33;;;;;;;4.50;89.81;95286.81;4376602;32;20283;-58
2022/12/07 04:40:19;;;;;;;2.53;2.43;;;;;;;4.59;89.90;95285.28;4373227;32;20279;-57
2022/12/07 04:42:46;;;;;;;1.60;1.50;;;;;;;4.51;90.14;95285.78;4352672;32;20304;-58
2022/12/07 04:45:14;;;;;;;2.80;2.60;;;;;;;4.57;90.07;95284.78;4343371;32;20368;-57
2022/12/07 04:47:41;;;;;;;1.57;1.57;;;;;;;4.48;90.32;95284.44;4355906;32;20265;-58
2022/12/07 04:50:10;;;;;;;2.23;2.13;;;;;;;4.34;91.81;95283.34;4376740;32;20362;-57
2022/12/07 04:52:36;;;;;;;3.70;3.50;;;;;;;4.21;92.13;95285.59;4343723;32;20303;-58
2022/12/07 04:55:03;;;;;;;2.00;2.00;;;;;;;4.29;92.50;95275.44;4375102;32;20277;-60
2022/12/07 04:57:28;;;;;;;0.97;0.97;;;;;;;4.30;92.82;95284.88;4377046;32;20276;-58
2022/12/07 04:59:53;;;;;;;2.40;2.20;;;;;;;4.29;92.62;95283.31;4373006;32;20306;-57
2022/12/07 05:02:22;;;;;;;2.70;2.50;;;;;;;4.24;92.24;95277.22;4384053;32;20188;-58
2022/12/07 05:04:50;;;;;;;2.30;2.20;;;;;;;4.19;92.96;95279.81;4376467;32;20247;-58
2022/12/07 05:07:18;;;;;;;2.63;2.53;;;;;;;4.16;93.03;95288.22;4376436;32;20314;-58
2022/12/07 05:09:45;;;;;;;2.27;1.90;;;;;;;4.09;94.45;95283.97;4364760;32;20288;-58
2022/12/07 05:12:12;;;;;;;1.67;1.67;;;;;;;3.96;93.95;95294.91;4372320;32;20304;-58
2022/12/07 05:14:40;;;;;;;2.43;2.33;;;;;;;3.84;95.22;95285.63;4367247;32;20280;-58
2022/12/07 05:17:08;;;;;;;2.17;2.07;;;;;;;4.00;94.54;95290.72;4347542;32;20371;-58
2022/12/07 05:19:34;;;;;;;2.77;2.60;;;;;;;4.02;94.04;95295.72;4356275;32;20302;-58
2022/12/07 05:22:01;;;;;;;1.07;1.00;;;;;;;3.95;94.88;95292.56;4335017;32;20278;-59
2022/12/07 05:24:47;;;;;;;2.00;1.87;;;;;;;3.94;94.77;95283.09;4355864;32;20302;-58
2022/12/07 05:27:14;;;;;;;1.63;1.63;;;;;;;4.10;94.69;95290.81;4368113;32;20285;-58
2022/12/07 05:29:40;;;;;;;2.70;1.90;;;;;;;4.11;94.19;95289.78;4330391;32;20331;-58
2022/12/07 05:32:08;;;;;;;1.83;1.73;;;;;;;3.98;94.26;95279.69;4359962;32;20447;-58
2022/12/07 05:34:34;;;;;;;2.27;2.17;;;;;;;4.03;94.35;95284.97;4356437;32;20285;-58
2022/12/07 05:36:59;;;;;;;2.30;2.20;;;;;;;3.97;94.78;95283.34;4363352;32;20340;-58
2022/12/07 05:39:26;;;;;;;2.13;1.80;;;;;;;4.09;94.43;95285.81;4365951;32;20284;-58
2022/12/07 05:42:12;;;;;;;1.20;1.20;;;;;;;4.11;94.06;95284.53;4351332;32;20189;-58
2022/12/07 05:44:41;;;;;;;1.93;1.87;;;;;;;3.79;94.35;95287.19;4370507;32;20292;-58
2022/12/07 05:47:09;;;;;;;1.70;1.63;;;;;;;3.85;95.22;95279.34;4352453;32;20347;-58
2022/12/07 05:49:34;;;;;;;1.80;1.53;;;;;;;4.04;94.59;95281.31;4371887;32;20322;-58
2022/12/07 05:52:02;;;;;;;2.20;2.10;;;;;;;4.02;94.33;95286.03;4380919;32;20281;-59
2022/12/07 05:54:27;;;;;;;1.50;1.40;;;;;;;4.14;93.59;95284.03;4358309;32;20185;-58
2022/12/07 05:56:58;;;;;;;1.40;1.40;;;;;;;4.18;93.21;95280.88;4364990;32;20329;-58
2022/12/07 05:59:27;;;;;;;1.87;1.87;;;;;;;4.19;92.52;95290.31;4374228;32;20185;-58
2022/12/07 06:02:22;;;;;;;1.20;1.20;;;;;;;3.97;93.02;95287.81;4374839;32;20355;-58
2022/12/07 06:04:48;;;;;;;1.37;1.37;;;;;;;3.96;92.46;95296.72;4349973;32;20331;-58
2022/12/07 06:07:20;;;;;;;2.77;2.67;;;;;;;4.04;92.16;95286.56;4362276;32;20296;-58
2022/12/07 06:09:49;;;;;;;2.30;2.20;;;;;;;3.84;92.47;95289.06;4365656;32;20289;-58
2022/12/07 06:12:34;;;;;;;1.93;1.87;;;;;;;3.71;93.43;95299.97;4349442;32;20305;-58
2022/12/07 06:15:02;;;;;;;1.87;1.77;;;;;;;3.71;94.32;95299.97;4354106;32;20363;-58
2022/12/07 06:17:29;;;;;;;1.97;1.97;;;;;;;3.96;92.48;95294.91;4338074;32;20280;-58
2022/12/07 06:19:57;;;;;;;2.40;2.30;;;;;;;3.68;93.13;95308.34;4356018;32;20277;-58
2022/12/07 06:22:24;;;;;;;2.77;2.67;;;;;;;3.77;93.59;95296.34;4368710;32;20286;-58
2022/12/07 06:24:52;;;;;;;1.53;1.53;;;;;;;3.92;92.46;95301.72;4371355;32;20285;-58
2022/12/07 06:27:17;;;;;;;2.93;2.73;;;;;;;3.85;92.64;95306.37;4366471;32;20289;-58
2022/12/07 06:29:45;;;;;;;3.47;3.27;;;;;;;3.94;92.61;95299.63;4353373;32;20364;-58
2022/12/07 06:32:13;;;;;;;2.43;2.33;;;;;;;3.89;92.04;95310.09;4352015;32;20188;-58
2022/12/07 06:34:40;;;;;;;2.30;2.20;;;;;;;3.80;92.32;95308.94;4347742;32;20331;-58
2022/12/07 06:37:07;;;;;;;2.13;2.07;;;;;;;3.96;92.08;95309.84;4335678;32;20285;-59
2022/12/07 06:39:35;;;;;;;1.80;1.77;;;;;;;3.83;92.07;95305.03;4372032;32;20350;-59
2022/12/07 06:42:01;;;;;;;1.77;1.73;;;;;;;3.85;92.41;95310.84;4385564;32;20352;-58
2022/12/07 06:44:27;;;;;;;2.47;2.37;;;;;;;3.99;92.00;95307.53;4377057;32;20277;-58
2022/12/07 06:46:53;;;;;;;2.50;2.33;;;;;;;4.13;91.22;95303.44;4345556;32;20260;-58
2022/12/07 06:49:21;;;;;;;2.20;2.10;;;;;;;4.04;91.43;95301.53;4351991;32;20427;-58
2022/12/07 06:51:49;;;;;;;2.67;2.57;;;;;;;3.93;91.94;95313.78;4368291;32;20249;-58
2022/12/07 06:54:16;;;;;;;4.03;2.80;;;;;;;3.96;91.75;95313.25;4357464;32;20283;-58
2022/12/07 06:56:43;;;;;;;2.80;2.70;;;;;;;4.00;91.88;95314.34;4357039;32;20285;-58
2022/12/07 06:59:14;;;;;;;2.03;1.83;;;;;;;4.20;91.22;95308.44;4335874;32;20342;-58
2022/12/07 07:01:43;;;;;;;1.70;1.70;;;;;;;4.10;91.16;95317.06;4354823;32;20299;-58
2022/12/07 07:04:09;;;;;;;2.30;2.20;;;;;;;3.92;90.50;95325.34;4380827;32;20320;-58
2022/12/07 07:06:36;;;;;;;3.07;2.77;;;;;;;3.82;91.30;95320.00;4371525;32;20285;-58
2022/12/07 07:09:05;;;;;;;2.60;2.50;;;;;;;3.86;91.61;95323.69;4356685;32;20297;-59
2022/12/07 07:11:30;;;;;;;2.50;2.40;;;;;;;3.81;91.70;95321.03;4336256;32;20338;-59
2022/12/07 07:14:02;;;;;;;1.73;1.63;;;;;;;4.05;90.74;95317.03;4359376;32;20287;-58
2022/12/07 07:16:30;;;;;;;2.53;2.37;;;;;;;3.97;91.08;95314.84;4350565;32;20374;-58
2022/12/07 07:18:57;;;;;;;2.50;2.40;;;;;;;4.08;90.66;95315.72;4343375;32;20348;-58
2022/12/07 07:21:23;;;;;;;3.13;2.93;;;;;;;4.05;90.56;95324.09;4356218;32;20318;-58
2022/12/07 07:23:56;;;;;;;1.43;1.43;;;;;;;4.05;90.80;95326.72;4365672;32;20305;-58
2022/12/07 07:26:23;;;;;;;8.27;2.10;;;;;;;4.09;90.66;95323.34;4330112;32;20352;-52
2022/12/07 07:28:49;;;;;;;2.37;2.27;;;;;;;5.57;100.00;95316.06;4354095;32;20313;-48
2022/12/07 07:31:15;;;;;;;2.13;2.03;;;;;;;8.34;100.00;95311.81;4336826;32;20284;-50
2022/12/07 07:33:42;;;;;;;2.33;2.23;;;;;;;8.92;100.00;95312.53;4366896;32;20185;-52
2022/12/07 07:36:09;;;;;;;2.57;2.47;;;;;;;9.77;85.16;95309.03;4347286;32;20336;-54
2022/12/07 07:38:36;;;;;;;1.73;1.73;;;;;;;10.31;76.62;95313.72;4365009;32;20274;-53
2022/12/07 07:41:02;;;;;;;2.43;2.23;;;;;;;11.00;71.42;95320.69;4369750;32;20276;-53
2022/12/07 07:43:52;;;;;;;2.23;2.13;;;;;;;11.28;68.56;95325.97;4369344;32;20188;-53
2022/12/07 07:46:18;;;;;;;2.60;1.73;;;;;;;11.05;67.88;95326.97;4355924;32;20181;-54
2022/12/07 07:48:46;;;;;;;1.33;1.33;;;;;;;11.38;65.94;95335.59;4365174;32;20205;-53
2022/12/07 07:51:11;;;;;;;2.50;2.30;;;;;;;11.51;64.82;95337.44;4377988;32;20196;-53
2022/12/07 07:53:37;;;;;;;1.77;1.77;;;;;;;11.64;63.51;95334.75;4372698;32;20241;-49
2022/12/07 07:56:03;;;;;;;2.33;2.20;;;;;;;11.51;61.52;95332.91;4362516;32;20188;-53
2022/12/07 07:58:28;;;;;;;3.73;2.37;;;;;;;11.56;61.24;95332.81;4376380;32;20206;-64
2022/12/07 08:00:54;;;;;;;2.37;2.27;;;;;;;9.76;61.78;95337.37;4363673;32;20212;-65
2022/12/07 08:03:21;;;;;;;2.50;2.40;;;;;;;8.42;66.75;95348.22;4358728;32;20279;-64
2022/12/07 08:05:46;;;;;;;2.33;2.23;;;;;;;7.50;71.82;95354.13;4362332;32;20196;-63
2022/12/07 08:08:12;;;;;;;2.93;2.67;;;;;;;6.71;75.00;95351.56;4374535;32;20193;-66
2022/12/07 08:10:37;;;;;;;1.63;1.63;;;;;;;6.41;77.42;95352.41;4367433;32;20293;-63
2022/12/07 08:13:14;;;;;;;2.83;1.87;;;;;;;5.86;79.74;95346.88;4374013;32;20270;-64
2022/12/07 08:15:44;;;;;;;2.33;2.23;;;;;;;5.81;80.65;95344.25;4369687;32;20185;-64
2022/12/07 08:18:12;;;;;;;2.80;2.60;;;;;;;5.87;81.16;95348.44;4375957;32;20372;-63
2022/12/07 08:20:40;;;;;;;4.00;2.63;;;;;;;5.30;83.09;95343.37;4363566;32;20299;-64
2022/12/07 08:23:08;;;;;;;1.63;1.50;;;;;;;5.18;84.07;95355.97;4348536;32;20301;-63
2022/12/07 08:25:35;;;;;;;2.73;2.53;;;;;;;5.18;84.86;95345.44;4358012;32;20353;-64
2022/12/07 08:28:02;;;;;;;2.17;2.07;;;;;;;5.14;85.30;95350.44;4346769;32;20299;-62
2022/12/07 08:30:48;;;;;;;2.33;2.23;;;;;;;5.14;85.15;95357.53;4350605;32;20288;-62
2022/12/07 08:33:16;;;;;;;2.10;2.00;;;;;;;5.02;85.52;95356.94;4368212;32;20322;-63
2022/12/07 08:35:43;;;;;;;3.00;2.80;;;;;;;4.98;85.80;95354.06;4390269;32;20273;-65
2022/12/07 08:38:11;;;;;;;2.97;2.77;;;;;;;4.72;86.23;95355.75;4380724;32;20311;-64
2022/12/07 08:40:37;;;;;;;1.47;1.47;;;;;;;4.86;86.33;95348.19;4350918;32;20327;-65
2022/12/07 08:43:03;;;;;;;1.77;1.77;;;;;;;4.93;86.36;95348.75;4363119;32;20284;-65
2022/12/07 08:45:32;;;;;;;2.13;2.03;;;;;;;5.24;85.17;95348.84;4348100;32;20379;-64
2022/12/07 08:48:05;;;;;;;2.57;2.37;;;;;;;5.21;85.48;95350.16;4369089;32;20188;-63
2022/12/07 08:50:33;;;;;;;2.30;2.20;;;;;;;5.32;83.88;95348.38;4351752;32;20389;-64
2022/12/07 08:53:11;;;;;;;2.80;2.53;;;;;;;5.13;84.82;95348.06;4372881;32;20285;-62
2022/12/07 08:55:38;;;;;;;1.70;1.70;;;;;;;4.95;85.48;95345.88;4372782;32;20364;-62
2022/12/07 08:58:03;;;;;;;2.37;2.27;;;;;;;5.25;85.24;95340.72;4362808;32;20367;-63
2022/12/07 09:00:30;;;;;;;2.27;2.17;;;;;;;5.15;85.52;95349.38;4359177;32;20294;-61
2022/12/07 09:02:58;;;;;;;1.43;1.43;;;;;;;4.92;85.98;95354.28;4374478;32;20180;-63
2022/12/07 09:05:25;;;;;;;1.63;1.63;;;;;;;5.00;85.71;95349.31;4327262;32;20292;-63
2022/12/07 09:07:58;;;;;;;2.27;2.17;;;;;;;4.87;84.74;95349.00;4344293;32;20368;-63
2022/12/07 09:10:25;;;;;;;2.57;2.37;;;;;;;5.17;85.14;95359.63;4351868;32;20293;-62
2022/12/07 09:12:52;;;;;;;1.73;1.70;;;;;;;4.97;85.31;95354.31;4353621;32;20364;-62
2022/12/07 09:15:18;;;;;;;2.53;2.43;;;;;;;4.76;86.30;95354.22;4351037;32;20289;-64
2022/12/07 09:17:45;;;;;;;2.40;2.30;;;;;;;4.99;85.25;95347.72;4354020;32;20323;-63
2022/12/07 09:20:14;;;;;;;2.47;2.37;;;;;;;5.03;85.20;95348.00;4360105;32;20198;-63
2022/12/07 09:22:43;;;;;;;2.07;1.93;;;;;;;5.21;84.84;95342.28;4344665;32;20305;-62
2022/12/07 09:25:09;;;;;;;4.80;2.47;;;;;;;5.20;85.07;95343.31;4357572;32;20280;-64
2022/12/07 09:27:36;;;;;;;3.20;3.00;;;;;;;5.39;84.27;95347.09;4334276;32;20352;-64
2022/12/07 09:30:04;;;;;;;2.00;1.90;;;;;;;5.43;83.69;95342.84;4352681;32;20299;-64
2022/12/07 09:32:30;;;;;;;1.60;1.60;;;;;;;5.86;82.18;95346.88;4360782;32;20355;-64
2022/12/07 09:34:57;;;;;;;2.00;1.90;;;;;;;5.97;80.74;95342.44;4364268;32;20285;-58
2022/12/07 09:37:25;;;;;;;2.20;2.10;;;;;;;5.89;81.07;95345.59;4366040;32;20303;-58
2022/12/07 09:39:52;;;;;;;2.27;2.07;;;;;;;5.80;81.16;95347.94;4361912;32;20367;-59
2022/12/07 09:42:54;;;;;;;1.83;1.73;;;;;;;5.66;80.55;95341.59;4351465;32;20320;-57
2022/12/07 09:45:33;;;;;;;2.03;1.90;;;;;;;5.72;81.56;95343.19;4349429;32;20279;-66
2022/12/07 09:48:01;;;;;;;2.00;1.90;;;;;;;5.80;80.44;95328.72;4373139;32;20285;-67
2022/12/07 09:50:28;;;;;;;2.07;1.97;;;;;;;5.86;80.39;95335.53;4364140;32;20292;-72
2022/12/07 09:53:08;;;;;;;2.47;2.30;;;;;;;5.80;80.56;95341.88;4366745;32;20286;-59
2022/12/07 09:55:38;;;;;;;2.30;2.20;;;;;;;5.64;81.34;95335.00;4336028;32;20289;-59
2022/12/07 09:58:04;;;;;;;2.10;1.63;;;;;;;5.81;79.62;95340.81;4357782;32;20318;-59
2022/12/07 10:00:33;;;;;;;2.50;2.30;;;;;;;5.69;79.79;95340.28;4343563;32;20285;-59
2022/12/07 10:03:02;;;;;;;1.70;1.60;;;;;;;5.67;79.75;95334.47;4357309;32;20201;-57
2022/12/07 10:05:39;;;;;;;2.40;2.30;;;;;;;5.58;79.81;95331.59;4326566;32;20282;-59
2022/12/07 10:08:13;;;;;;;1.60;1.50;;;;;;;5.61;79.49;95328.41;4357035;32;20292;-58
2022/12/07 10:10:41;;;;;;;0.97;0.97;;;;;;;5.44;79.75;95323.41;4376824;32;20331;-57
2022/12/07 10:13:21;;;;;;;1.97;1.87;;;;;;;5.61;78.76;95319.75;4356636;32;20288;-59
2022/12/07 10:15:56;;;;;;;1.20;1.20;;;;;;;5.57;77.75;95323.97;4370992;32;20329;-59
2022/12/07 10:18:44;;;;;;;2.07;1.97;;;;;;;5.53;78.06;95321.06;4349891;32;20383;-58
2022/12/07 10:21:16;;;;;;;1.73;1.73;;;;;;;5.53;77.86;95319.22;4329185;32;20298;-58
2022/12/07 10:24:03;;;;;;;2.57;2.07;;;;;;;5.57;77.59;95316.84;4367382;32;20280;-57
2022/12/07 10:26:51;;;;;;;2.00;1.90;;;;;;;5.41;78.04;95317.84;4353947;32;20323;-58
2022/12/07 10:29:39;;;;;;;1.57;1.47;;;;;;;5.40;77.55;95321.56;4356913;32;20277;-59
2022/12/07 10:32:26;;;;;;;1.67;1.63;;;;;;;5.72;77.04;95313.44;4363772;32;20287;-61
2022/12/07 10:35:18;;;;;;;2.00;1.90;;;;;;;5.78;77.10;95313.19;4337372;32;20401;-58
2022/12/07 10:37:46;;;;;;;1.10;1.10;;;;;;;5.95;76.53;95309.53;4342277;32;20281;-58
2022/12/07 10:40:35;;;;;;;0.93;0.93;;;;;;;6.03;74.95;95308.97;4383031;32;20277;-58
2022/12/07 10:43:14;;;;;;;1.53;1.50;;;;;;;6.00;75.25;95310.31;4363926;32;20351;-58
2022/12/07 10:46:19;;;;;;;2.70;2.50;;;;;;;5.96;74.58;95305.84;4366368;32;20319;-56
2022/12/07 10:49:25;;;;;;;1.23;1.23;;;;;;;6.10;74.13;95305.03;4345073;32;20371;-58
2022/12/07 10:52:28;;;;;;;1.50;1.40;;;;;;;5.87;74.94;95300.28;4327442;32;20304;-58
2022/12/07 10:55:25;;;;;;;1.60;1.60;;;;;;;6.14;72.62;95300.81;4351946;32;20364;-57
2022/12/07 10:58:27;;;;;;;1.60;1.50;;;;;;;6.06;73.49;95293.44;4362674;32;20292;-56
2022/12/07 11:01:27;;;;;;;0.87;0.87;;;;;;;5.98;72.50;95291.37;4361917;32;20366;-58
2022/12/07 11:04:29;;;;;;;1.17;1.03;;;;;;;5.90;72.70;95285.81;4344625;32;20458;-57
2022/12/07 11:07:18;;;;;;;0.97;0.97;;;;;;;5.85;72.27;95286.59;4384069;32;20381;-57
2022/12/07 11:10:21;;;;;;;3.73;1.10;;;;;;;5.90;71.73;95283.97;4350132;32;20288;-57
2022/12/07 11:13:29;;;;;;;1.53;1.43;;;;;;;5.65;72.17;95276.84;4302119;32;20296;-58
2022/12/07 11:16:13;;;;;;;2.10;1.50;;;;;;;5.88;73.53;95272.91;4342731;32;20281;-57
2022/12/07 11:19:14;;;;;;;1.87;1.77;;;;;;;5.96;72.36;95264.50;4369216;32;20272;-57
2022/12/07 11:21:54;;;;;;;1.00;1.00;;;;;;;6.06;72.28;95276.84;4376036;32;20295;-59
2022/12/07 11:24:35;;;;;;;0.50;0.50;;;;;;;5.98;71.30;95270.31;4370286;32;20280;-59
2022/12/07 11:27:47;;;;;;;1.67;1.60;;;;;;;5.88;71.17;95272.91;4359347;32;20288;-59
2022/12/07 11:30:51;;;;;;;1.20;1.20;;;;;;;5.74;72.21;95266.59;4333239;32;20323;-59
2022/12/07 11:33:41;;;;;;;1.30;1.30;;;;;;;5.66;72.56;95262.63;4376149;32;20290;-59
2022/12/07 11:36:43;;;;;;;0.60;0.60;;;;;;;5.79;72.99;95262.13;4380757;32;20299;-58
2022/12/07 11:39:34;;;;;;;4.17;2.57;;;;;;;5.92;72.44;95260.03;4330268;32;20370;-59
2022/12/07 11:42:23;;;;;;;1.80;1.70;;;;;;;5.83;71.50;95262.38;4364502;32;20280;-59
2022/12/07 11:45:28;;;;;;;1.10;1.10;;;;;;;6.11;71.67;95253.16;4349207;32;20374;-59
2022/12/07 11:48:19;;;;;;;1.50;1.40;;;;;;;6.16;70.66;95256.56;4360922;32;20300;-59
2022/12/07 11:50:54;;;;;;;1.40;1.40;;;;;;;6.27;70.50;95246.00;4360310;32;20281;-59
2022/12/07 11:53:35;;;;;;;0.50;0.50;;;;;;;6.31;69.77;95247.84;4354511;32;20323;-58
2022/12/07 11:56:13;;;;;;;1.13;1.13;;;;;;;6.27;69.00;95243.38;4377949;32;20276;-58
2022/12/07 11:59:11;;;;;;;1.90;1.73;;;;;;;5.81;68.99;95248.72;4363565;32;20298;-57
2022/12/07 12:01:55;;;;;;;1.60;1.50;;;;;;;5.99;68.94;95237.66;4328054;32;20293;-57
2022/12/07 12:04:45;;;;;;;2.33;1.80;;;;;;;5.90;68.78;95230.56;4363471;32;20294;-58
2022/12/07 12:07:17;;;;;;;1.37;1.37;;;;;;;5.86;69.47;95231.03;4357231;32;20305;-58
2022/12/07 12:10:06;;;;;;;1.67;1.57;;;;;;;5.84;69.42;95225.25;4347868;32;20288;-58
2022/12/07 12:13:29;;;;;;;1.27;1.17;;;;;;;5.81;69.72;95227.66;4307266;32;20303;-58
2022/12/07 12:16:10;;;;;;;1.77;1.43;;;;;;;5.84;69.21;95216.56;4336632;32;20293;-58
2022/12/07 12:19:21;;;;;;;0.63;0.63;;;;;;;5.84;70.22;95225.25;4326364;32;20293;-57